sensor_id;sensor_type;location;lat;lon;timestamp;pressure;altitude;pressure_sealevel;temperature;humidity
69766;BME280;57039;48.014;21.384;2023-03-11T00:00:20;98428.75;;;9.63;100.00
69766;BME280;57039;48.014;21.384;2023-03-11T00:01:24;98415.81;;;9.62;100.00
69766;BME280;57039;48.014;21.384;2023-03-11T00:02:27;98419.25;;;9.62;100.00
69766;BME280;57039;48.014;21.384;2023-03-11T00:03:30;98420.91;;;9.63;100.00
69766;BME280;57039;48.014;21.384;2023-03-11T00:04:33;98381.09;;;9.38;100.00
69766;BME280;57039;48.014;21.384;2023-03-11T00:05:37;98375.56;;;9.32;100.00
69766;BME280;57039;48.014;21.384;2023-03-11T00:06:41;98415.25;;;9.58;100.00
69766;BME280;57039;48.014;21.384;2023-03-11T00:07:43;98408.31;;;9.57;100.00
69766;BME280;57039;48.014;21.384;2023-03-11T00:08:46;98394.13;;;9.50;100.00
69766;BME280;57039;48.014;21.384;2023-03-11T00:09:49;98374.06;;;9.39;100.00
69766;BME280;57039;48.014;21.384;2023-03-11T00:10:57;98415.25;;;9.58;100.00
69766;BME280;57039;48.014;21.384;2023-03-11T00:12:02;98409.03;;;9.59;100.00
69766;BME280;57039;48.014;21.384;2023-03-11T00:13:06;98409.03;;;9.59;100.00
69766;BME280;57039;48.014;21.384;2023-03-11T00:14:09;98398.72;;;9.57;100.00
69766;BME280;57039;48.014;21.384;2023-03-11T00:15:13;98400.63;;;9.55;100.00
69766;BME280;57039;48.014;21.384;2023-03-11T00:16:16;98397.81;;;9.47;100.00
69766;BME280;57039;48.014;21.384;2023-03-11T00:17:19;98389.25;;;9.45;100.00
69766;BME280;57039;48.014;21.384;2023-03-11T00:18:27;98410.53;;;9.52;100.00
69766;BME280;57039;48.014;21.384;2023-03-11T00:19:31;98408.72;;;9.52;100.00
69766;BME280;57039;48.014;21.384;2023-03-11T00:20:37;98405.16;;;9.53;100.00
69766;BME280;57039;48.014;21.384;2023-03-11T00:21:40;98396.62;;;9.51;100.00
69766;BME280;57039;48.014;21.384;2023-03-11T00:22:43;98354.44;;;9.24;100.00
69766;BME280;57039;48.014;21.384;2023-03-11T00:23:46;98401.84;;;9.51;100.00
69766;BME280;57039;48.014;21.384;2023-03-11T00:24:49;98384.72;;;9.47;100.00
69766;BME280;57039;48.014;21.384;2023-03-11T00:25:52;98335.72;;;9.19;100.00
69766;BME280;57039;48.014;21.384;2023-03-11T00:26:54;98399.91;;;9.53;100.00
69766;BME280;57039;48.014;21.384;2023-03-11T00:27:58;98355.72;;;9.29;100.00
69766;BME280;57039;48.014;21.384;2023-03-11T00:29:01;98399.34;;;9.50;100.00
69766;BME280;57039;48.014;21.384;2023-03-11T00:30:05;98369.81;;;9.38;100.00
69766;BME280;57039;48.014;21.384;2023-03-11T00:31:10;98391.50;;;9.50;100.00
69766;BME280;57039;48.014;21.384;2023-03-11T00:32:14;98385.44;;;9.49;100.00
69766;BME280;57039;48.014;21.384;2023-03-11T00:33:17;98386.25;;;9.50;100.00
69766;BME280;57039;48.014;21.384;2023-03-11T00:34:20;98319.94;;;9.09;100.00
69766;BME280;57039;48.014;21.384;2023-03-11T00:35:28;98391.50;;;9.50;100.00
69766;BME280;57039;48.014;21.384;2023-03-11T00:36:32;98379.94;;;9.52;100.00
69766;BME280;57039;48.014;21.384;2023-03-11T00:37:35;98384.72;;;9.47;100.00
69766;BME280;57039;48.014;21.384;2023-03-11T00:38:39;98302.81;;;8.95;100.00
69766;BME280;57039;48.014;21.384;2023-03-11T00:39:41;98378.56;;;9.48;100.00
69766;BME280;57039;48.014;21.384;2023-03-11T00:40:46;98382.25;;;9.46;100.00
69766;BME280;57039;48.014;21.384;2023-03-11T00:41:49;98376.06;;;9.47;100.00
69766;BME280;57039;48.014;21.384;2023-03-11T00:42:53;98376.75;;;9.49;100.00
69766;BME280;57039;48.014;21.384;2023-03-11T00:43:56;98338.44;;;9.17;100.00
69766;BME280;57039;48.014;21.384;2023-03-11T00:44:59;98382.25;;;9.46;100.00
69766;BME280;57039;48.014;21.384;2023-03-11T00:46:02;98379.66;;;9.46;100.00
69766;BME280;57039;48.014;21.384;2023-03-11T00:47:08;98383.19;;;9.45;100.00
69766;BME280;57039;48.014;21.384;2023-03-11T00:48:12;98374.41;;;9.46;100.00
69766;BME280;57039;48.014;21.384;2023-03-11T00:49:15;98377.97;;;9.45;100.00
69766;BME280;57039;48.014;21.384;2023-03-11T00:50:21;98340.34;;;9.15;100.00
69766;BME280;57039;48.014;21.384;2023-03-11T00:51:24;98378.66;;;9.47;100.00
69766;BME280;57039;48.014;21.384;2023-03-11T00:52:27;98381.41;;;9.45;100.00
69766;BME280;57039;48.014;21.384;2023-03-11T00:53:30;98380.59;;;9.45;100.00
69766;BME280;57039;48.014;21.384;2023-03-11T00:54:33;98379.50;;;9.47;100.00
69766;BME280;57039;48.014;21.384;2023-03-11T00:55:36;98381.28;;;9.47;100.00
69766;BME280;57039;48.014;21.384;2023-03-11T00:56:39;98379.66;;;9.46;100.00
69766;BME280;57039;48.014;21.384;2023-03-11T00:57:43;98381.56;;;9.44;100.00
69766;BME280;57039;48.014;21.384;2023-03-11T00:58:47;98380.59;;;9.45;100.00
69766;BME280;57039;48.014;21.384;2023-03-11T00:59:50;98375.34;;;9.45;100.00
69766;BME280;57039;48.014;21.384;2023-03-11T01:00:53;98388.44;;;9.45;100.00
69766;BME280;57039;48.014;21.384;2023-03-11T01:01:57;98383.91;;;9.47;100.00
69766;BME280;57039;48.014;21.384;2023-03-11T01:03:00;98376.31;;;9.44;100.00
69766;BME280;57039;48.014;21.384;2023-03-11T01:04:03;98370.25;;;9.43;100.00
69766;BME280;57039;48.014;21.384;2023-03-11T01:05:06;98378.13;;;9.43;100.00
69766;BME280;57039;48.014;21.384;2023-03-11T01:06:11;98373.00;;;9.42;100.00
69766;BME280;57039;48.014;21.384;2023-03-11T01:07:14;98377.28;;;9.43;100.00
69766;BME280;57039;48.014;21.384;2023-03-11T01:08:17;98376.16;;;9.45;100.00
69766;BME280;57039;48.014;21.384;2023-03-11T01:09:20;98372.47;;;9.48;100.00
69766;BME280;57039;48.014;21.384;2023-03-11T01:10:23;98368.19;;;9.47;100.00
69766;BME280;57039;48.014;21.384;2023-03-11T01:11:26;98365.03;;;9.43;100.00
69766;BME280;57039;48.014;21.384;2023-03-11T01:12:29;98376.63;;;9.50;100.00
69766;BME280;57039;48.014;21.384;2023-03-11T01:13:32;98371.66;;;9.47;100.00
69766;BME280;57039;48.014;21.384;2023-03-11T01:14:35;98368.47;;;9.44;100.00
69766;BME280;57039;48.014;21.384;2023-03-11T01:15:38;98370.81;;;9.47;100.00
69766;BME280;57039;48.014;21.384;2023-03-11T01:16:41;98340.16;;;9.28;100.00
69766;BME280;57039;48.014;21.384;2023-03-11T01:17:45;98366.66;;;9.44;100.00
69766;BME280;57039;48.014;21.384;2023-03-11T01:18:48;98370.94;;;9.45;100.00
69766;BME280;57039;48.014;21.384;2023-03-11T01:19:51;98362.25;;;9.45;100.00
69766;BME280;57039;48.014;21.384;2023-03-11T01:20:54;98376.31;;;9.44;100.00
69766;BME280;57039;48.014;21.384;2023-03-11T01:21:57;98367.75;;;9.42;100.00
69766;BME280;57039;48.014;21.384;2023-03-11T01:22:59;98372.72;;;9.45;100.00
69766;BME280;57039;48.014;21.384;2023-03-11T01:24:03;98365.28;;;9.40;100.00
69766;BME280;57039;48.014;21.384;2023-03-11T01:25:06;98364.19;;;9.43;100.00
69766;BME280;57039;48.014;21.384;2023-03-11T01:26:09;98363.34;;;9.42;100.00
69766;BME280;57039;48.014;21.384;2023-03-11T01:27:12;98367.75;;;9.42;100.00
69766;BME280;57039;48.014;21.384;2023-03-11T01:28:15;98361.44;;;9.44;100.00
69766;BME280;57039;48.014;21.384;2023-03-11T01:29:18;98325.50;;;9.16;100.00
69766;BME280;57039;48.014;21.384;2023-03-11T01:30:23;98364.72;;;9.36;100.00
69766;BME280;57039;48.014;21.384;2023-03-11T01:31:26;98360.06;;;9.40;100.00
69766;BME280;57039;48.014;21.384;2023-03-11T01:32:29;98361.13;;;9.37;100.00
69766;BME280;57039;48.014;21.384;2023-03-11T01:33:32;98351.19;;;9.31;100.00
69766;BME280;57039;48.014;21.384;2023-03-11T01:34:35;98361.69;;;9.41;100.00
69766;BME280;57039;48.014;21.384;2023-03-11T01:35:37;98354.81;;;9.40;100.00
69766;BME280;57039;48.014;21.384;2023-03-11T01:36:41;98347.50;;;9.34;100.00
69766;BME280;57039;48.014;21.384;2023-03-11T01:37:45;98363.59;;;9.39;100.00
69766;BME280;57039;48.014;21.384;2023-03-11T01:38:48;98360.06;;;9.40;100.00
69766;BME280;57039;48.014;21.384;2023-03-11T01:39:51;98353.28;;;9.37;100.00
69766;BME280;57039;48.014;21.384;2023-03-11T01:40:54;98349.03;;;9.36;100.00
69766;BME280;57039;48.014;21.384;2023-03-11T01:41:57;98349.97;;;9.35;100.00
69766;BME280;57039;48.014;21.384;2023-03-11T01:43:00;98301.63;;;9.09;100.00
69766;BME280;57039;48.014;21.384;2023-03-11T01:44:04;98351.62;;;9.36;100.00
69766;BME280;57039;48.014;21.384;2023-03-11T01:46:32;98349.84;;;9.37;100.00
69766;BME280;57039;48.014;21.384;2023-03-11T01:47:38;98349.28;;;9.33;100.00
69766;BME280;57039;48.014;21.384;2023-03-11T01:49:03;98349.28;;;9.33;100.00
69766;BME280;57039;48.014;21.384;2023-03-11T01:50:10;98340.47;;;9.34;100.00
69766;BME280;57039;48.014;21.384;2023-03-11T01:51:16;98313.38;;;9.14;100.00
69766;BME280;57039;48.014;21.384;2023-03-11T01:52:21;98340.72;;;9.31;100.00
69766;BME280;57039;48.014;21.384;2023-03-11T01:53:24;98334.94;;;9.28;100.00
69766;BME280;57039;48.014;21.384;2023-03-11T01:54:30;98329.09;;;9.24;100.00
69766;BME280;57039;48.014;21.384;2023-03-11T01:55:34;98287.50;;;8.90;100.00
69766;BME280;57039;48.014;21.384;2023-03-11T01:56:39;98335.03;;;9.26;100.00
69766;BME280;57039;48.014;21.384;2023-03-11T01:57:44;98336.84;;;9.26;100.00
69766;BME280;57039;48.014;21.384;2023-03-11T01:58:50;98340.53;;;9.23;100.00
69766;BME280;57039;48.014;21.384;2023-03-11T01:59:55;98337.66;;;9.26;100.00
69766;BME280;57039;48.014;21.384;2023-03-11T02:01:00;98335.19;;;9.25;100.00
69766;BME280;57039;48.014;21.384;2023-03-11T02:02:35;98336.00;;;9.25;100.00
69766;BME280;57039;48.014;21.384;2023-03-11T02:03:41;98341.94;;;9.27;100.00
69766;BME280;57039;48.014;21.384;2023-03-11T02:04:45;98301.06;;;9.05;100.00
69766;BME280;57039;48.014;21.384;2023-03-11T02:05:50;98337.09;;;9.23;100.00
69766;BME280;57039;48.014;21.384;2023-03-11T02:06:57;98339.44;;;9.26;100.00
69766;BME280;57039;48.014;21.384;2023-03-11T02:08:00;98327.00;;;9.18;100.00
69766;BME280;57039;48.014;21.384;2023-03-11T02:09:04;98345.50;;;9.26;100.00
69766;BME280;57039;48.014;21.384;2023-03-11T02:10:08;98342.19;;;9.24;100.00
69766;BME280;57039;48.014;21.384;2023-03-11T02:11:16;98340.53;;;9.23;100.00
69766;BME280;57039;48.014;21.384;2023-03-11T02:12:21;98339.81;;;9.21;100.00
69766;BME280;57039;48.014;21.384;2023-03-11T02:13:24;98334.59;;;9.21;100.00
69766;BME280;57039;48.014;21.384;2023-03-11T02:14:28;98341.06;;;9.17;100.00
69766;BME280;57039;48.014;21.384;2023-03-11T02:15:32;98328.22;;;9.14;100.00
69766;BME280;57039;48.014;21.384;2023-03-11T02:16:35;98335.97;;;9.16;100.00
69766;BME280;57039;48.014;21.384;2023-03-11T02:17:40;98334.19;;;9.16;100.00
69766;BME280;57039;48.014;21.384;2023-03-11T02:18:44;98335.81;;;9.17;100.00
69766;BME280;57039;48.014;21.384;2023-03-11T02:19:55;98315.09;;;9.04;100.00
69766;BME280;57039;48.014;21.384;2023-03-11T02:22:18;98324.22;;;9.10;100.00
69766;BME280;57039;48.014;21.384;2023-03-11T02:23:25;98320.78;;;9.09;100.00
69766;BME280;57039;48.014;21.384;2023-03-11T02:24:56;98325.16;;;9.09;100.00
69766;BME280;57039;48.014;21.384;2023-03-11T02:26:26;98317.72;;;9.04;100.00
69766;BME280;57039;48.014;21.384;2023-03-11T02:27:35;98321.88;;;9.07;100.00
69766;BME280;57039;48.014;21.384;2023-03-11T02:28:41;98318.53;;;9.05;100.00
69766;BME280;57039;48.014;21.384;2023-03-11T02:29:45;98314.41;;;9.02;100.00
69766;BME280;57039;48.014;21.384;2023-03-11T02:30:52;98323.78;;;9.05;100.00
69766;BME280;57039;48.014;21.384;2023-03-11T02:31:55;98320.19;;;9.06;100.00
69766;BME280;57039;48.014;21.384;2023-03-11T02:33:01;98323.78;;;9.05;100.00
69766;BME280;57039;48.014;21.384;2023-03-11T02:34:05;98323.22;;;9.01;100.00
69766;BME280;57039;48.014;21.384;2023-03-11T02:35:11;98313.56;;;9.02;100.00
69766;BME280;57039;48.014;21.384;2023-03-11T02:36:32;98316.31;;;9.00;100.00
69766;BME280;57039;48.014;21.384;2023-03-11T02:37:36;98315.75;;;8.97;100.00
69766;BME280;57039;48.014;21.384;2023-03-11T02:38:39;98311.94;;;9.01;100.00
69766;BME280;57039;48.014;21.384;2023-03-11T02:39:45;98311.06;;;9.00;100.00
69766;BME280;57039;48.014;21.384;2023-03-11T02:41:57;98307.47;;;8.91;100.00
69766;BME280;57039;48.014;21.384;2023-03-11T02:43:02;98303.38;;;8.99;100.00
69766;BME280;57039;48.014;21.384;2023-03-11T02:44:10;98309.56;;;8.98;100.00
69766;BME280;57039;48.014;21.384;2023-03-11T02:45:16;98306.25;;;8.96;100.00
69766;BME280;57039;48.014;21.384;2023-03-11T02:46:19;98303.63;;;8.96;100.00
69766;BME280;57039;48.014;21.384;2023-03-11T02:47:22;98287.50;;;8.90;100.00
69766;BME280;57039;48.014;21.384;2023-03-11T02:48:27;98299.78;;;9.00;100.00
69766;BME280;57039;48.014;21.384;2023-03-11T02:49:31;98216.94;;;8.49;100.00
69766;BME280;57039;48.014;21.384;2023-03-11T02:50:34;98302.56;;;8.98;100.00
69766;BME280;57039;48.014;21.384;2023-03-11T02:51:38;98296.75;;;8.95;100.00
69766;BME280;57039;48.014;21.384;2023-03-11T02:52:41;98296.63;;;8.96;100.00
69766;BME280;57039;48.014;21.384;2023-03-11T02:53:47;98302.56;;;8.98;100.00
69766;BME280;57039;48.014;21.384;2023-03-11T02:54:51;98304.34;;;8.98;100.00
69766;BME280;57039;48.014;21.384;2023-03-11T02:55:54;98300.03;;;8.97;100.00
69766;BME280;57039;48.014;21.384;2023-03-11T02:56:56;98303.50;;;8.97;100.00
69766;BME280;57039;48.014;21.384;2023-03-11T02:58:01;98307.91;;;8.97;100.00
69766;BME280;57039;48.014;21.384;2023-03-11T02:59:05;98310.50;;;8.97;100.00
69766;BME280;57039;48.014;21.384;2023-03-11T03:00:09;98274.88;;;8.75;100.00
69766;BME280;57039;48.014;21.384;2023-03-11T03:01:15;98304.47;;;8.96;100.00
69766;BME280;57039;48.014;21.384;2023-03-11T03:02:18;98307.78;;;8.98;100.00
69766;BME280;57039;48.014;21.384;2023-03-11T03:03:21;98308.87;;;8.96;100.00
69766;BME280;57039;48.014;21.384;2023-03-11T03:04:24;98281.50;;;8.79;100.00
69766;BME280;57039;48.014;21.384;2023-03-11T03:05:27;98308.72;;;8.97;100.00
69766;BME280;57039;48.014;21.384;2023-03-11T03:06:31;98307.91;;;8.97;100.00
69766;BME280;57039;48.014;21.384;2023-03-11T03:07:34;98310.66;;;8.95;100.00
69766;BME280;57039;48.014;21.384;2023-03-11T03:08:38;98316.81;;;8.94;100.00
69766;BME280;57039;48.014;21.384;2023-03-11T03:09:40;98307.78;;;8.98;100.00
69766;BME280;57039;48.014;21.384;2023-03-11T03:10:43;98313.38;;;8.94;100.00
69766;BME280;57039;48.014;21.384;2023-03-11T03:11:46;98305.78;;;8.90;100.00
69766;BME280;57039;48.014;21.384;2023-03-11T03:12:49;98315.06;;;8.95;100.00
69766;BME280;57039;48.014;21.384;2023-03-11T03:13:52;98314.47;;;8.91;100.00
69766;BME280;57039;48.014;21.384;2023-03-11T03:14:55;98317.53;;;8.96;100.00
69766;BME280;57039;48.014;21.384;2023-03-11T03:16:00;98301.78;;;8.86;100.00
69766;BME280;57039;48.014;21.384;2023-03-11T03:17:03;98262.38;;;8.57;100.00
69766;BME280;57039;48.014;21.384;2023-03-11T03:18:07;98285.91;;;8.78;100.00
69766;BME280;57039;48.014;21.384;2023-03-11T03:19:10;98316.97;;;8.93;100.00
69766;BME280;57039;48.014;21.384;2023-03-11T03:20:13;98295.84;;;8.84;100.00
69766;BME280;57039;48.014;21.384;2023-03-11T03:21:16;98306.06;;;8.87;100.00
69766;BME280;57039;48.014;21.384;2023-03-11T03:22:19;98312.09;;;8.88;100.00
69766;BME280;57039;48.014;21.384;2023-03-11T03:23:22;98308.81;;;8.86;100.00
69766;BME280;57039;48.014;21.384;2023-03-11T03:24:25;98304.66;;;8.83;100.00
69766;BME280;57039;48.014;21.384;2023-03-11T03:25:28;98302.31;;;8.80;100.00
69766;BME280;57039;48.014;21.384;2023-03-11T03:26:31;98293.28;;;8.73;100.00
69766;BME280;57039;48.014;21.384;2023-03-11T03:27:35;98302.81;;;8.74;100.00
69766;BME280;57039;48.014;21.384;2023-03-11T03:28:38;98307.22;;;8.74;100.00
69766;BME280;57039;48.014;21.384;2023-03-11T03:29:41;98301.28;;;8.72;100.00
69766;BME280;57039;48.014;21.384;2023-03-11T03:30:45;98297.28;;;8.67;100.00
69766;BME280;57039;48.014;21.384;2023-03-11T03:31:48;98298.59;;;8.62;100.00
69766;BME280;57039;48.014;21.384;2023-03-11T03:32:51;98306.44;;;8.62;100.00
69766;BME280;57039;48.014;21.384;2023-03-11T03:33:54;98285.28;;;8.44;100.00
69766;BME280;57039;48.014;21.384;2023-03-11T03:34:57;98311.69;;;8.62;100.00
69766;BME280;57039;48.014;21.384;2023-03-11T03:36:09;98313.84;;;8.57;100.00
69766;BME280;57039;48.014;21.384;2023-03-11T03:37:13;98315.72;;;8.55;100.00
69766;BME280;57039;48.014;21.384;2023-03-11T03:38:16;98313.25;;;8.53;100.00
69766;BME280;57039;48.014;21.384;2023-03-11T03:39:19;98315.31;;;8.50;100.00
69766;BME280;57039;48.014;21.384;2023-03-11T03:40:22;98321.22;;;8.52;100.00
69766;BME280;57039;48.014;21.384;2023-03-11T03:41:25;98309.94;;;8.51;100.00
69766;BME280;57039;48.014;21.384;2023-03-11T03:42:28;98311.59;;;8.52;100.00
69766;BME280;57039;48.014;21.384;2023-03-11T03:43:31;98303.88;;;8.51;100.00
69766;BME280;57039;48.014;21.384;2023-03-11T03:44:34;98294.41;;;8.50;100.00
69766;BME280;57039;48.014;21.384;2023-03-11T03:45:37;98298.91;;;8.48;100.00
69766;BME280;57039;48.014;21.384;2023-03-11T03:46:40;98293.94;;;8.44;100.00
69766;BME280;57039;48.014;21.384;2023-03-11T03:47:43;98287.88;;;8.44;100.00
69766;BME280;57039;48.014;21.384;2023-03-11T03:48:46;98222.69;;;8.10;100.00
69766;BME280;57039;48.014;21.384;2023-03-11T03:49:49;98280.88;;;8.44;100.00
69766;BME280;57039;48.014;21.384;2023-03-11T03:50:52;98241.50;;;8.25;100.00
69766;BME280;57039;48.014;21.384;2023-03-11T03:51:54;98268.75;;;8.43;100.00
69766;BME280;57039;48.014;21.384;2023-03-11T03:52:58;98268.38;;;8.48;100.00
69766;BME280;57039;48.014;21.384;2023-03-11T03:54:01;98256.03;;;8.50;100.00
69766;BME280;57039;48.014;21.384;2023-03-11T03:55:05;98264.28;;;8.55;100.00
69766;BME280;57039;48.014;21.384;2023-03-11T03:56:10;98270.87;;;8.50;100.00
69766;BME280;57039;48.014;21.384;2023-03-11T03:57:13;98279.44;;;8.40;100.00
69766;BME280;57039;48.014;21.384;2023-03-11T03:58:17;98282.06;;;8.40;100.00
69766;BME280;57039;48.014;21.384;2023-03-11T03:59:20;98285.63;;;8.39;100.00
69766;BME280;57039;48.014;21.384;2023-03-11T04:00:23;98285.37;;;8.42;100.00
69766;BME280;57039;48.014;21.384;2023-03-11T04:01:26;98254.75;;;8.33;100.00
69766;BME280;57039;48.014;21.384;2023-03-11T04:02:30;98273.59;;;8.48;100.00
69766;BME280;57039;48.014;21.384;2023-03-11T04:03:34;98267.66;;;8.46;100.00
69766;BME280;57039;48.014;21.384;2023-03-11T04:04:39;98259.25;;;8.42;100.00
69766;BME280;57039;48.014;21.384;2023-03-11T04:05:43;98264.84;;;8.38;100.00
69766;BME280;57039;48.014;21.384;2023-03-11T04:06:48;98263.09;;;8.38;100.00
69766;BME280;57039;48.014;21.384;2023-03-11T04:07:52;98261.38;;;8.37;100.00
69766;BME280;57039;48.014;21.384;2023-03-11T04:08:56;98260.25;;;8.30;100.00
69766;BME280;57039;48.014;21.384;2023-03-11T04:10:00;98273.53;;;8.38;100.00
69766;BME280;57039;48.014;21.384;2023-03-11T04:11:05;98242.25;;;8.16;100.00
69766;BME280;57039;48.014;21.384;2023-03-11T04:12:14;98257.06;;;8.27;100.00
69766;BME280;57039;48.014;21.384;2023-03-11T04:13:17;98226.63;;;8.05;100.00
69766;BME280;57039;48.014;21.384;2023-03-11T04:14:21;98278.16;;;8.35;100.00
69766;BME280;57039;48.014;21.384;2023-03-11T04:15:24;98285.03;;;8.36;100.00
69766;BME280;57039;48.014;21.384;2023-03-11T04:16:27;98279.22;;;8.32;100.00
69766;BME280;57039;48.014;21.384;2023-03-11T04:17:32;98294.09;;;8.32;100.00
69766;BME280;57039;48.014;21.384;2023-03-11T04:18:36;98294.19;;;8.30;100.00
69766;BME280;57039;48.014;21.384;2023-03-11T04:19:40;98189.53;;;7.69;100.00
69766;BME280;57039;48.014;21.384;2023-03-11T04:20:44;98293.06;;;8.23;100.00
69766;BME280;57039;48.014;21.384;2023-03-11T04:21:48;98295.91;;;8.20;100.00
69766;BME280;57039;48.014;21.384;2023-03-11T04:22:53;98295.91;;;8.20;100.00
69766;BME280;57039;48.014;21.384;2023-03-11T04:23:56;98293.41;;;8.18;100.00
69766;BME280;57039;48.014;21.384;2023-03-11T04:25:01;98292.84;;;8.15;100.00
69766;BME280;57039;48.014;21.384;2023-03-11T04:26:05;98291.03;;;8.15;100.00
69766;BME280;57039;48.014;21.384;2023-03-11T04:27:09;98297.91;;;8.16;100.00
69766;BME280;57039;48.014;21.384;2023-03-11T04:28:14;98297.81;;;8.18;100.00
69766;BME280;57039;48.014;21.384;2023-03-11T04:29:17;98299.59;;;8.17;100.00
69766;BME280;57039;48.014;21.384;2023-03-11T04:30:22;98300.09;;;8.11;100.00
69766;BME280;57039;48.014;21.384;2023-03-11T04:31:26;98259.56;;;7.96;100.00
69766;BME280;57039;48.014;21.384;2023-03-11T04:32:29;98298.06;;;8.15;100.00
69766;BME280;57039;48.014;21.384;2023-03-11T04:33:33;98272.59;;;7.96;100.00
69766;BME280;57039;48.014;21.384;2023-03-11T04:34:36;98297.91;;;8.16;100.00
69766;BME280;57039;48.014;21.384;2023-03-11T04:35:39;98298.06;;;8.15;100.00
69766;BME280;57039;48.014;21.384;2023-03-11T04:36:41;98290.22;;;8.15;100.00
69766;BME280;57039;48.014;21.384;2023-03-11T04:37:45;98297.91;;;8.16;100.00
69766;BME280;57039;48.014;21.384;2023-03-11T04:38:48;98296.72;;;8.20;100.00
69766;BME280;57039;48.014;21.384;2023-03-11T04:39:51;98287.94;;;8.21;100.00
69766;BME280;57039;48.014;21.384;2023-03-11T04:40:59;98293.97;;;8.22;100.00
69766;BME280;57039;48.014;21.384;2023-03-11T04:42:03;98282.00;;;8.19;100.00
69766;BME280;57039;48.014;21.384;2023-03-11T04:43:07;98291.13;;;8.25;100.00
69766;BME280;57039;48.014;21.384;2023-03-11T04:44:10;98288.66;;;8.23;100.00
69766;BME280;57039;48.014;21.384;2023-03-11T04:45:13;98290.31;;;8.24;100.00
69766;BME280;57039;48.014;21.384;2023-03-11T04:46:16;98251.47;;;7.99;100.00
69766;BME280;57039;48.014;21.384;2023-03-11T04:47:19;98294.59;;;8.26;100.00
69766;BME280;57039;48.014;21.384;2023-03-11T04:48:27;98286.03;;;8.23;100.00
69766;BME280;57039;48.014;21.384;2023-03-11T04:49:30;98258.44;;;7.98;100.00
69766;BME280;57039;48.014;21.384;2023-03-11T04:50:33;98293.41;;;8.18;100.00
69766;BME280;57039;48.014;21.384;2023-03-11T04:51:35;98280.38;;;8.07;100.00
69766;BME280;57039;48.014;21.384;2023-03-11T04:52:39;98298.06;;;8.15;100.00
69766;BME280;57039;48.014;21.384;2023-03-11T04:53:42;98246.63;;;7.83;100.00
69766;BME280;57039;48.014;21.384;2023-03-11T04:54:46;98298.31;;;8.12;100.00
69766;BME280;57039;48.014;21.384;2023-03-11T04:55:48;98289.19;;;8.06;100.00
69766;BME280;57039;48.014;21.384;2023-03-11T04:56:52;98302.56;;;8.13;100.00
69766;BME280;57039;48.014;21.384;2023-03-11T04:57:55;98265.84;;;7.93;100.00
69766;BME280;57039;48.014;21.384;2023-03-11T04:58:58;98305.91;;;8.15;100.00
69766;BME280;57039;48.014;21.384;2023-03-11T05:00:03;98297.22;;;8.14;100.00
69766;BME280;57039;48.014;21.384;2023-03-11T05:01:10;98304.94;;;8.16;100.00
69766;BME280;57039;48.014;21.384;2023-03-11T05:02:13;98305.91;;;8.15;100.00
69766;BME280;57039;48.014;21.384;2023-03-11T05:03:17;98286.69;;;8.05;100.00
69766;BME280;57039;48.014;21.384;2023-03-11T05:04:20;98305.31;;;8.11;100.00
69766;BME280;57039;48.014;21.384;2023-03-11T05:05:23;98300.19;;;8.10;100.00
69766;BME280;57039;48.014;21.384;2023-03-11T05:06:26;98301.03;;;8.10;100.00
69766;BME280;57039;48.014;21.384;2023-03-11T05:07:29;98279.00;;;7.92;100.00
69766;BME280;57039;48.014;21.384;2023-03-11T05:08:32;98309.97;;;8.08;100.00
69766;BME280;57039;48.014;21.384;2023-03-11T05:09:35;98299.66;;;7.95;100.00
69766;BME280;57039;48.014;21.384;2023-03-11T05:10:39;98306.66;;;7.94;100.00
69766;BME280;57039;48.014;21.384;2023-03-11T05:11:44;98317.81;;;7.96;100.00
69766;BME280;57039;48.014;21.384;2023-03-11T05:12:48;98336.91;;;7.97;100.00
69766;BME280;57039;48.014;21.384;2023-03-11T05:13:50;98326.47;;;7.97;100.00
69766;BME280;57039;48.014;21.384;2023-03-11T05:14:53;98333.47;;;7.96;100.00
69766;BME280;57039;48.014;21.384;2023-03-11T05:15:57;98288.78;;;7.67;100.00
69766;BME280;57039;48.014;21.384;2023-03-11T05:17:00;98341.06;;;7.99;100.00
69766;BME280;57039;48.014;21.384;2023-03-11T05:18:04;98345.56;;;7.97;100.00
69766;BME280;57039;48.014;21.384;2023-03-11T05:19:06;98357.31;;;8.03;100.00
69766;BME280;57039;48.014;21.384;2023-03-11T05:20:29;98355.28;;;8.07;100.00
69766;BME280;57039;48.014;21.384;2023-03-11T05:21:34;98359.56;;;8.08;100.00
69766;BME280;57039;48.014;21.384;2023-03-11T05:22:36;98355.53;;;8.04;100.00
69766;BME280;57039;48.014;21.384;2023-03-11T05:23:39;98314.50;;;7.83;100.00
69766;BME280;57039;48.014;21.384;2023-03-11T05:24:42;98323.53;;;7.90;100.00
69766;BME280;57039;48.014;21.384;2023-03-11T05:25:45;98351.84;;;8.06;100.00
69766;BME280;57039;48.014;21.384;2023-03-11T05:26:49;98354.47;;;8.06;100.00
69766;BME280;57039;48.014;21.384;2023-03-11T05:27:51;98352.81;;;8.05;100.00
69766;BME280;57039;48.014;21.384;2023-03-11T05:28:54;98357.19;;;8.05;100.00
69766;BME280;57039;48.014;21.384;2023-03-11T05:29:57;98347.69;;;8.04;100.00
69766;BME280;57039;48.014;21.384;2023-03-11T05:31:00;98349.59;;;8.01;100.00
69766;BME280;57039;48.014;21.384;2023-03-11T05:32:04;98357.44;;;8.01;100.00
69766;BME280;57039;48.014;21.384;2023-03-11T05:33:07;98360.28;;;7.98;100.00
69766;BME280;57039;48.014;21.384;2023-03-11T05:34:10;98361.38;;;7.96;100.00
69766;BME280;57039;48.014;21.384;2023-03-11T05:35:14;98364.09;;;7.94;100.00
69766;BME280;57039;48.014;21.384;2023-03-11T05:36:19;98365.16;;;7.92;100.00
69766;BME280;57039;48.014;21.384;2023-03-11T05:37:22;98360.06;;;7.90;100.00
69766;BME280;57039;48.014;21.384;2023-03-11T05:38:25;98364.47;;;7.90;100.00
69766;BME280;57039;48.014;21.384;2023-03-11T05:39:28;98363.63;;;7.89;100.00